sensor_id;sensor_type;location;lat;lon;timestamp;temperature;humidity
8957;DHT22;4513;50.054;8.230;2022-08-19T00:02:02;22.30;99.90
8957;DHT22;4513;50.054;8.230;2022-08-19T00:04:33;22.30;99.90
8957;DHT22;4513;50.054;8.230;2022-08-19T00:07:02;22.30;99.90
8957;DHT22;4513;50.054;8.230;2022-08-19T00:09:29;22.30;99.90
8957;DHT22;4513;50.054;8.230;2022-08-19T00:11:57;22.30;99.90
8957;DHT22;4513;50.054;8.230;2022-08-19T00:14:25;22.30;99.90
8957;DHT22;4513;50.054;8.230;2022-08-19T00:16:53;22.20;99.90
8957;DHT22;4513;50.054;8.230;2022-08-19T00:19:20;22.20;99.90
8957;DHT22;4513;50.054;8.230;2022-08-19T00:21:49;22.20;99.90
8957;DHT22;4513;50.054;8.230;2022-08-19T00:24:16;22.10;99.90
8957;DHT22;4513;50.054;8.230;2022-08-19T00:26:44;22.10;99.90
8957;DHT22;4513;50.054;8.230;2022-08-19T00:29:13;22.10;99.90
8957;DHT22;4513;50.054;8.230;2022-08-19T00:31:40;22.10;99.90
8957;DHT22;4513;50.054;8.230;2022-08-19T00:34:08;22.10;99.90
8957;DHT22;4513;50.054;8.230;2022-08-19T00:36:35;22.10;99.90
8957;DHT22;4513;50.054;8.230;2022-08-19T00:39:04;22.10;99.90
8957;DHT22;4513;50.054;8.230;2022-08-19T00:41:31;22.20;99.90
8957;DHT22;4513;50.054;8.230;2022-08-19T00:44:00;22.20;99.90
8957;DHT22;4513;50.054;8.230;2022-08-19T00:46:28;22.10;99.90
8957;DHT22;4513;50.054;8.230;2022-08-19T00:48:55;22.20;99.90
8957;DHT22;4513;50.054;8.230;2022-08-19T00:51:23;22.00;99.90
8957;DHT22;4513;50.054;8.230;2022-08-19T00:53:53;22.00;99.90
8957;DHT22;4513;50.054;8.230;2022-08-19T00:56:22;21.90;99.90
8957;DHT22;4513;50.054;8.230;2022-08-19T00:58:50;21.90;99.90
8957;DHT22;4513;50.054;8.230;2022-08-19T01:01:17;21.90;99.90
8957;DHT22;4513;50.054;8.230;2022-08-19T01:03:43;21.90;99.90
8957;DHT22;4513;50.054;8.230;2022-08-19T01:06:10;21.80;99.90
8957;DHT22;4513;50.054;8.230;2022-08-19T01:08:37;21.70;99.90
8957;DHT22;4513;50.054;8.230;2022-08-19T01:11:04;21.70;99.90
8957;DHT22;4513;50.054;8.230;2022-08-19T01:13:33;21.80;99.90
8957;DHT22;4513;50.054;8.230;2022-08-19T01:16:02;21.80;99.90
8957;DHT22;4513;50.054;8.230;2022-08-19T01:18:31;21.70;99.90
8957;DHT22;4513;50.054;8.230;2022-08-19T01:21:01;21.70;99.90
8957;DHT22;4513;50.054;8.230;2022-08-19T01:23:30;21.70;99.90
8957;DHT22;4513;50.054;8.230;2022-08-19T01:26:11;21.70;99.90
8957;DHT22;4513;50.054;8.230;2022-08-19T01:28:39;21.70;99.90
8957;DHT22;4513;50.054;8.230;2022-08-19T01:31:08;21.70;99.90
8957;DHT22;4513;50.054;8.230;2022-08-19T01:33:37;21.70;99.90
8957;DHT22;4513;50.054;8.230;2022-08-19T01:36:07;21.70;99.90
8957;DHT22;4513;50.054;8.230;2022-08-19T01:38:39;21.70;99.90
8957;DHT22;4513;50.054;8.230;2022-08-19T01:41:06;21.80;99.90
8957;DHT22;4513;50.054;8.230;2022-08-19T01:43:33;21.70;99.90
8957;DHT22;4513;50.054;8.230;2022-08-19T01:46:00;21.60;99.90
8957;DHT22;4513;50.054;8.230;2022-08-19T01:48:33;21.70;99.90
8957;DHT22;4513;50.054;8.230;2022-08-19T01:51:00;21.70;99.90
8957;DHT22;4513;50.054;8.230;2022-08-19T01:53:27;21.70;99.90
8957;DHT22;4513;50.054;8.230;2022-08-19T01:55:56;21.60;99.90
8957;DHT22;4513;50.054;8.230;2022-08-19T01:58:26;21.60;99.90
8957;DHT22;4513;50.054;8.230;2022-08-19T02:00:54;21.60;99.90
8957;DHT22;4513;50.054;8.230;2022-08-19T02:03:21;21.60;99.90
8957;DHT22;4513;50.054;8.230;2022-08-19T02:05:54;21.60;99.90
8957;DHT22;4513;50.054;8.230;2022-08-19T02:08:22;21.60;99.90
8957;DHT22;4513;50.054;8.230;2022-08-19T02:10:49;21.60;99.90
8957;DHT22;4513;50.054;8.230;2022-08-19T02:13:18;21.60;99.90
8957;DHT22;4513;50.054;8.230;2022-08-19T02:15:45;21.60;99.90
8957;DHT22;4513;50.054;8.230;2022-08-19T02:18:12;21.50;99.90
8957;DHT22;4513;50.054;8.230;2022-08-19T02:20:42;21.50;99.90
8957;DHT22;4513;50.054;8.230;2022-08-19T02:23:10;21.50;99.90
8957;DHT22;4513;50.054;8.230;2022-08-19T02:25:38;21.40;99.90
8957;DHT22;4513;50.054;8.230;2022-08-19T02:28:05;21.40;99.90
8957;DHT22;4513;50.054;8.230;2022-08-19T02:30:33;21.30;99.90
8957;DHT22;4513;50.054;8.230;2022-08-19T02:33:00;21.30;99.90
8957;DHT22;4513;50.054;8.230;2022-08-19T02:35:27;21.30;99.90
8957;DHT22;4513;50.054;8.230;2022-08-19T02:37:53;21.30;99.90
8957;DHT22;4513;50.054;8.230;2022-08-19T02:40:38;21.20;99.90
8957;DHT22;4513;50.054;8.230;2022-08-19T02:43:06;21.30;99.90
8957;DHT22;4513;50.054;8.230;2022-08-19T02:45:36;21.20;99.90
8957;DHT22;4513;50.054;8.230;2022-08-19T02:48:03;21.10;99.90
8957;DHT22;4513;50.054;8.230;2022-08-19T02:50:31;21.00;99.90
8957;DHT22;4513;50.054;8.230;2022-08-19T02:52:58;21.00;99.90
8957;DHT22;4513;50.054;8.230;2022-08-19T02:55:24;20.90;99.90
8957;DHT22;4513;50.054;8.230;2022-08-19T02:57:51;20.90;99.90
8957;DHT22;4513;50.054;8.230;2022-08-19T03:00:18;20.90;99.90
8957;DHT22;4513;50.054;8.230;2022-08-19T03:02:46;20.80;99.90
8957;DHT22;4513;50.054;8.230;2022-08-19T03:05:14;20.80;99.90
8957;DHT22;4513;50.054;8.230;2022-08-19T03:07:42;20.80;99.90
8957;DHT22;4513;50.054;8.230;2022-08-19T03:10:09;20.70;99.90
8957;DHT22;4513;50.054;8.230;2022-08-19T03:12:36;20.70;99.90
8957;DHT22;4513;50.054;8.230;2022-08-19T03:15:05;20.70;99.90
8957;DHT22;4513;50.054;8.230;2022-08-19T03:17:32;20.70;99.90
8957;DHT22;4513;50.054;8.230;2022-08-19T03:20:01;20.70;99.90
8957;DHT22;4513;50.054;8.230;2022-08-19T03:22:28;20.70;99.90
8957;DHT22;4513;50.054;8.230;2022-08-19T03:24:55;20.60;99.90
8957;DHT22;4513;50.054;8.230;2022-08-19T03:27:22;20.60;99.90
8957;DHT22;4513;50.054;8.230;2022-08-19T03:29:49;20.50;99.90
8957;DHT22;4513;50.054;8.230;2022-08-19T03:32:16;20.60;99.90
8957;DHT22;4513;50.054;8.230;2022-08-19T03:34:42;20.60;99.90
8957;DHT22;4513;50.054;8.230;2022-08-19T03:37:11;20.60;99.90
8957;DHT22;4513;50.054;8.230;2022-08-19T03:39:40;20.50;99.90
8957;DHT22;4513;50.054;8.230;2022-08-19T03:42:07;20.50;99.90
8957;DHT22;4513;50.054;8.230;2022-08-19T03:44:34;20.40;99.90
8957;DHT22;4513;50.054;8.230;2022-08-19T03:47:04;20.40;99.90
8957;DHT22;4513;50.054;8.230;2022-08-19T03:49:32;20.40;99.90
8957;DHT22;4513;50.054;8.230;2022-08-19T03:52:01;20.40;99.90
8957;DHT22;4513;50.054;8.230;2022-08-19T03:54:31;20.40;99.90
8957;DHT22;4513;50.054;8.230;2022-08-19T03:56:58;20.40;99.90
8957;DHT22;4513;50.054;8.230;2022-08-19T03:59:27;20.40;99.90
8957;DHT22;4513;50.054;8.230;2022-08-19T04:01:55;20.30;99.90
8957;DHT22;4513;50.054;8.230;2022-08-19T04:04:22;20.40;99.90
8957;DHT22;4513;50.054;8.230;2022-08-19T04:06:50;20.40;99.90
8957;DHT22;4513;50.054;8.230;2022-08-19T04:09:18;20.30;99.90
8957;DHT22;4513;50.054;8.230;2022-08-19T04:11:48;20.30;99.90
8957;DHT22;4513;50.054;8.230;2022-08-19T04:14:17;20.30;99.90
8957;DHT22;4513;50.054;8.230;2022-08-19T04:16:45;20.30;99.90
8957;DHT22;4513;50.054;8.230;2022-08-19T04:19:13;20.30;99.90
8957;DHT22;4513;50.054;8.230;2022-08-19T04:21:43;20.30;99.90
8957;DHT22;4513;50.054;8.230;2022-08-19T04:24:11;20.30;99.90
8957;DHT22;4513;50.054;8.230;2022-08-19T04:26:38;20.20;99.90
8957;DHT22;4513;50.054;8.230;2022-08-19T04:29:09;20.10;99.90
8957;DHT22;4513;50.054;8.230;2022-08-19T04:31:36;20.10;99.90
8957;DHT22;4513;50.054;8.230;2022-08-19T04:34:05;20.20;99.90
8957;DHT22;4513;50.054;8.230;2022-08-19T04:36:33;20.20;99.90
8957;DHT22;4513;50.054;8.230;2022-08-19T04:39:03;20.20;99.90
8957;DHT22;4513;50.054;8.230;2022-08-19T04:41:30;20.20;99.90
8957;DHT22;4513;50.054;8.230;2022-08-19T04:44:16;20.20;99.90
8957;DHT22;4513;50.054;8.230;2022-08-19T04:46:44;20.10;99.90
8957;DHT22;4513;50.054;8.230;2022-08-19T04:49:10;20.00;99.90
8957;DHT22;4513;50.054;8.230;2022-08-19T04:51:40;20.10;99.90
8957;DHT22;4513;50.054;8.230;2022-08-19T04:54:08;20.00;99.90
8957;DHT22;4513;50.054;8.230;2022-08-19T04:56:35;20.00;99.90
8957;DHT22;4513;50.054;8.230;2022-08-19T04:59:02;20.00;99.90
8957;DHT22;4513;50.054;8.230;2022-08-19T05:01:32;20.00;99.90
8957;DHT22;4513;50.054;8.230;2022-08-19T05:04:00;20.20;99.90
8957;DHT22;4513;50.054;8.230;2022-08-19T05:06:27;20.10;99.90
8957;DHT22;4513;50.054;8.230;2022-08-19T05:08:58;20.10;99.90
8957;DHT22;4513;50.054;8.230;2022-08-19T05:11:28;20.20;99.90
8957;DHT22;4513;50.054;8.230;2022-08-19T05:13:56;20.30;99.90
8957;DHT22;4513;50.054;8.230;2022-08-19T05:16:24;20.30;99.90
8957;DHT22;4513;50.054;8.230;2022-08-19T05:18:53;20.30;99.90
8957;DHT22;4513;50.054;8.230;2022-08-19T05:21:40;20.40;99.90
8957;DHT22;4513;50.054;8.230;2022-08-19T05:24:26;20.40;99.90
8957;DHT22;4513;50.054;8.230;2022-08-19T05:26:54;20.50;99.90
8957;DHT22;4513;50.054;8.230;2022-08-19T05:29:25;20.50;99.90
8957;DHT22;4513;50.054;8.230;2022-08-19T05:31:54;20.60;99.90
8957;DHT22;4513;50.054;8.230;2022-08-19T05:34:23;20.70;99.90
8957;DHT22;4513;50.054;8.230;2022-08-19T05:36:54;20.80;99.90
8957;DHT22;4513;50.054;8.230;2022-08-19T05:39:24;20.80;99.90
8957;DHT22;4513;50.054;8.230;2022-08-19T05:41:53;20.90;99.90
8957;DHT22;4513;50.054;8.230;2022-08-19T05:44:23;21.00;99.90
8957;DHT22;4513;50.054;8.230;2022-08-19T05:46:51;21.10;99.90
8957;DHT22;4513;50.054;8.230;2022-08-19T05:49:20;21.30;99.90
8957;DHT22;4513;50.054;8.230;2022-08-19T05:51:49;21.30;99.90
8957;DHT22;4513;50.054;8.230;2022-08-19T05:54:16;21.40;99.90
8957;DHT22;4513;50.054;8.230;2022-08-19T05:56:43;21.50;99.90
8957;DHT22;4513;50.054;8.230;2022-08-19T05:59:13;21.60;99.90
8957;DHT22;4513;50.054;8.230;2022-08-19T06:01:42;21.60;99.90
8957;DHT22;4513;50.054;8.230;2022-08-19T06:04:09;21.70;99.90
8957;DHT22;4513;50.054;8.230;2022-08-19T06:06:36;21.70;99.90
8957;DHT22;4513;50.054;8.230;2022-08-19T06:09:06;21.80;99.90
8957;DHT22;4513;50.054;8.230;2022-08-19T06:11:34;21.80;99.90
8957;DHT22;4513;50.054;8.230;2022-08-19T06:14:03;21.80;99.90
8957;DHT22;4513;50.054;8.230;2022-08-19T06:16:31;21.90;99.90
8957;DHT22;4513;50.054;8.230;2022-08-19T06:19:01;22.00;99.90
8957;DHT22;4513;50.054;8.230;2022-08-19T06:21:28;22.10;99.90
8957;DHT22;4513;50.054;8.230;2022-08-19T06:23:56;22.10;99.90
8957;DHT22;4513;50.054;8.230;2022-08-19T06:26:25;22.20;99.90
8957;DHT22;4513;50.054;8.230;2022-08-19T06:28:53;22.20;99.90
8957;DHT22;4513;50.054;8.230;2022-08-19T06:31:22;22.40;99.90
8957;DHT22;4513;50.054;8.230;2022-08-19T06:33:49;22.40;99.90
8957;DHT22;4513;50.054;8.230;2022-08-19T06:36:18;22.40;99.90
8957;DHT22;4513;50.054;8.230;2022-08-19T06:38:45;22.50;99.90
8957;DHT22;4513;50.054;8.230;2022-08-19T06:41:12;22.60;99.90
8957;DHT22;4513;50.054;8.230;2022-08-19T06:43:40;22.60;99.90
8957;DHT22;4513;50.054;8.230;2022-08-19T06:46:12;22.70;99.90
8957;DHT22;4513;50.054;8.230;2022-08-19T06:48:39;22.70;99.90
8957;DHT22;4513;50.054;8.230;2022-08-19T06:51:06;22.70;99.90
8957;DHT22;4513;50.054;8.230;2022-08-19T06:53:33;22.80;99.90
8957;DHT22;4513;50.054;8.230;2022-08-19T06:56:00;22.90;99.90
8957;DHT22;4513;50.054;8.230;2022-08-19T06:58:29;23.00;99.90
8957;DHT22;4513;50.054;8.230;2022-08-19T07:01:02;23.00;99.90
8957;DHT22;4513;50.054;8.230;2022-08-19T07:03:31;23.20;99.90
8957;DHT22;4513;50.054;8.230;2022-08-19T07:06:02;23.20;99.90
8957;DHT22;4513;50.054;8.230;2022-08-19T07:08:29;23.20;99.90
8957;DHT22;4513;50.054;8.230;2022-08-19T07:10:57;23.40;99.90
8957;DHT22;4513;50.054;8.230;2022-08-19T07:13:24;23.60;99.90
8957;DHT22;4513;50.054;8.230;2022-08-19T07:15:51;23.60;99.90
8957;DHT22;4513;50.054;8.230;2022-08-19T07:18:20;23.60;99.90
8957;DHT22;4513;50.054;8.230;2022-08-19T07:20:48;23.70;99.90
8957;DHT22;4513;50.054;8.230;2022-08-19T07:23:15;23.80;99.90
8957;DHT22;4513;50.054;8.230;2022-08-19T07:25:43;24.00;99.90
8957;DHT22;4513;50.054;8.230;2022-08-19T07:28:10;24.00;99.90
8957;DHT22;4513;50.054;8.230;2022-08-19T07:30:37;24.00;99.90
8957;DHT22;4513;50.054;8.230;2022-08-19T07:33:06;24.10;99.90
8957;DHT22;4513;50.054;8.230;2022-08-19T07:35:34;24.10;99.90
8957;DHT22;4513;50.054;8.230;2022-08-19T07:38:01;24.00;99.90
8957;DHT22;4513;50.054;8.230;2022-08-19T07:40:29;24.10;99.90
8957;DHT22;4513;50.054;8.230;2022-08-19T07:42:56;24.10;99.90
8957;DHT22;4513;50.054;8.230;2022-08-19T07:45:23;24.00;99.90
8957;DHT22;4513;50.054;8.230;2022-08-19T07:47:50;24.00;99.90
8957;DHT22;4513;50.054;8.230;2022-08-19T07:50:19;24.20;99.90
8957;DHT22;4513;50.054;8.230;2022-08-19T07:52:49;24.40;99.90
8957;DHT22;4513;50.054;8.230;2022-08-19T07:55:18;24.60;99.90
8957;DHT22;4513;50.054;8.230;2022-08-19T07:57:45;24.70;99.90
8957;DHT22;4513;50.054;8.230;2022-08-19T08:00:13;24.70;99.90
8957;DHT22;4513;50.054;8.230;2022-08-19T08:02:40;24.80;99.90
8957;DHT22;4513;50.054;8.230;2022-08-19T08:05:10;25.00;99.90
8957;DHT22;4513;50.054;8.230;2022-08-19T08:07:56;25.10;99.00
8957;DHT22;4513;50.054;8.230;2022-08-19T08:10:40;25.00;99.00
8957;DHT22;4513;50.054;8.230;2022-08-19T08:13:07;25.20;98.60
8957;DHT22;4513;50.054;8.230;2022-08-19T08:15:34;25.20;98.00
8957;DHT22;4513;50.054;8.230;2022-08-19T08:18:02;25.10;98.20
8957;DHT22;4513;50.054;8.230;2022-08-19T08:20:29;25.10;98.10
8957;DHT22;4513;50.054;8.230;2022-08-19T08:22:58;25.10;98.20
8957;DHT22;4513;50.054;8.230;2022-08-19T08:25:41;25.00;98.00
8957;DHT22;4513;50.054;8.230;2022-08-19T08:28:08;24.90;98.10
8957;DHT22;4513;50.054;8.230;2022-08-19T08:30:36;25.00;97.90
8957;DHT22;4513;50.054;8.230;2022-08-19T08:33:06;25.20;98.00
8957;DHT22;4513;50.054;8.230;2022-08-19T08:35:34;25.40;97.30
8957;DHT22;4513;50.054;8.230;2022-08-19T08:38:03;25.30;97.30
8957;DHT22;4513;50.054;8.230;2022-08-19T08:40:38;25.50;97.20
8957;DHT22;4513;50.054;8.230;2022-08-19T08:43:08;25.60;96.40
8957;DHT22;4513;50.054;8.230;2022-08-19T08:45:41;25.70;96.50
8957;DHT22;4513;50.054;8.230;2022-08-19T08:48:16;25.80;95.90
8957;DHT22;4513;50.054;8.230;2022-08-19T08:50:45;25.90;95.40
8957;DHT22;4513;50.054;8.230;2022-08-19T08:53:17;26.20;94.80
8957;DHT22;4513;50.054;8.230;2022-08-19T08:55:44;26.60;94.30
8957;DHT22;4513;50.054;8.230;2022-08-19T08:58:16;27.20;94.00
8957;DHT22;4513;50.054;8.230;2022-08-19T09:00:47;27.80;92.00
8957;DHT22;4513;50.054;8.230;2022-08-19T09:03:18;28.00;91.80
8957;DHT22;4513;50.054;8.230;2022-08-19T09:06:01;28.20;91.40
8957;DHT22;4513;50.054;8.230;2022-08-19T09:08:39;28.50;90.90
8957;DHT22;4513;50.054;8.230;2022-08-19T09:11:10;28.40;89.30
8957;DHT22;4513;50.054;8.230;2022-08-19T09:13:44;28.10;90.20
8957;DHT22;4513;50.054;8.230;2022-08-19T09:16:19;28.10;90.00
8957;DHT22;4513;50.054;8.230;2022-08-19T09:18:52;28.40;90.00
8957;DHT22;4513;50.054;8.230;2022-08-19T09:21:20;28.80;90.30
8957;DHT22;4513;50.054;8.230;2022-08-19T09:23:49;29.10;87.50
8957;DHT22;4513;50.054;8.230;2022-08-19T09:26:19;28.50;88.80
8957;DHT22;4513;50.054;8.230;2022-08-19T09:28:48;28.30;89.20
8957;DHT22;4513;50.054;8.230;2022-08-19T09:31:17;27.70;89.80
8957;DHT22;4513;50.054;8.230;2022-08-19T09:33:45;27.40;90.60
8957;DHT22;4513;50.054;8.230;2022-08-19T09:36:15;27.60;90.70
8957;DHT22;4513;50.054;8.230;2022-08-19T09:38:42;28.10;89.60
8957;DHT22;4513;50.054;8.230;2022-08-19T09:41:13;28.50;88.30
8957;DHT22;4513;50.054;8.230;2022-08-19T09:43:41;28.90;87.00
8957;DHT22;4513;50.054;8.230;2022-08-19T09:46:08;29.00;85.00
8957;DHT22;4513;50.054;8.230;2022-08-19T09:48:36;28.90;86.70
8957;DHT22;4513;50.054;8.230;2022-08-19T09:51:04;29.00;85.40
8957;DHT22;4513;50.054;8.230;2022-08-19T09:53:32;29.40;83.30
8957;DHT22;4513;50.054;8.230;2022-08-19T09:55:59;29.30;83.40
8957;DHT22;4513;50.054;8.230;2022-08-19T09:58:29;29.20;82.40
8957;DHT22;4513;50.054;8.230;2022-08-19T10:00:57;29.10;81.70
8957;DHT22;4513;50.054;8.230;2022-08-19T10:03:26;28.90;82.30
8957;DHT22;4513;50.054;8.230;2022-08-19T10:05:53;28.80;81.70
8957;DHT22;4513;50.054;8.230;2022-08-19T10:08:22;28.80;83.20
8957;DHT22;4513;50.054;8.230;2022-08-19T10:10:49;28.60;84.70
8957;DHT22;4513;50.054;8.230;2022-08-19T10:13:20;29.10;82.80
8957;DHT22;4513;50.054;8.230;2022-08-19T10:15:53;29.20;83.00
8957;DHT22;4513;50.054;8.230;2022-08-19T10:18:22;29.50;80.50
8957;DHT22;4513;50.054;8.230;2022-08-19T10:20:50;29.60;81.90
8957;DHT22;4513;50.054;8.230;2022-08-19T10:23:18;29.80;79.80
8957;DHT22;4513;50.054;8.230;2022-08-19T10:25:45;29.70;79.30
8957;DHT22;4513;50.054;8.230;2022-08-19T10:28:13;29.80;78.50
8957;DHT22;4513;50.054;8.230;2022-08-19T10:30:39;29.60;79.50
8957;DHT22;4513;50.054;8.230;2022-08-19T10:33:08;29.60;78.40
8957;DHT22;4513;50.054;8.230;2022-08-19T10:35:34;29.10;80.00
8957;DHT22;4513;50.054;8.230;2022-08-19T10:38:02;29.10;80.00
8957;DHT22;4513;50.054;8.230;2022-08-19T10:40:29;29.20;79.00
8957;DHT22;4513;50.054;8.230;2022-08-19T10:42:55;29.00;80.30
8957;DHT22;4513;50.054;8.230;2022-08-19T10:45:22;28.70;79.60
8957;DHT22;4513;50.054;8.230;2022-08-19T10:47:50;28.30;80.70
8957;DHT22;4513;50.054;8.230;2022-08-19T10:50:18;28.00;83.30
8957;DHT22;4513;50.054;8.230;2022-08-19T10:53:05;28.10;83.20
8957;DHT22;4513;50.054;8.230;2022-08-19T10:55:34;28.20;81.30
8957;DHT22;4513;50.054;8.230;2022-08-19T10:58:20;28.10;81.90
8957;DHT22;4513;50.054;8.230;2022-08-19T11:00:54;28.10;80.90
8957;DHT22;4513;50.054;8.230;2022-08-19T11:03:22;28.10;82.30
8957;DHT22;4513;50.054;8.230;2022-08-19T11:05:58;28.00;80.00
8957;DHT22;4513;50.054;8.230;2022-08-19T11:08:25;28.10;78.90
8957;DHT22;4513;50.054;8.230;2022-08-19T11:10:53;27.90;76.60
8957;DHT22;4513;50.054;8.230;2022-08-19T11:13:22;27.70;78.30
8957;DHT22;4513;50.054;8.230;2022-08-19T11:15:56;27.90;78.80
8957;DHT22;4513;50.054;8.230;2022-08-19T11:18:23;28.20;77.40
8957;DHT22;4513;50.054;8.230;2022-08-19T11:20:51;28.40;78.00
8957;DHT22;4513;50.054;8.230;2022-08-19T11:23:19;28.60;77.20
8957;DHT22;4513;50.054;8.230;2022-08-19T11:25:46;28.80;76.40
8957;DHT22;4513;50.054;8.230;2022-08-19T11:28:13;28.80;74.90
8957;DHT22;4513;50.054;8.230;2022-08-19T11:30:40;28.30;76.20
8957;DHT22;4513;50.054;8.230;2022-08-19T11:33:06;28.40;76.70
8957;DHT22;4513;50.054;8.230;2022-08-19T11:35:39;28.40;77.60
8957;DHT22;4513;50.054;8.230;2022-08-19T11:38:06;28.50;78.70
8957;DHT22;4513;50.054;8.230;2022-08-19T11:40:34;28.70;77.20
8957;DHT22;4513;50.054;8.230;2022-08-19T11:43:01;28.70;77.80
8957;DHT22;4513;50.054;8.230;2022-08-19T11:45:28;28.70;76.10
8957;DHT22;4513;50.054;8.230;2022-08-19T11:47:55;28.80;74.80
8957;DHT22;4513;50.054;8.230;2022-08-19T11:50:22;28.70;74.40
8957;DHT22;4513;50.054;8.230;2022-08-19T11:52:50;28.80;75.00
8957;DHT22;4513;50.054;8.230;2022-08-19T11:55:17;28.70;75.70
8957;DHT22;4513;50.054;8.230;2022-08-19T11:57:46;28.80;75.80
8957;DHT22;4513;50.054;8.230;2022-08-19T12:00:14;28.90;74.50
8957;DHT22;4513;50.054;8.230;2022-08-19T12:02:41;28.90;74.90
8957;DHT22;4513;50.054;8.230;2022-08-19T12:05:08;29.10;74.40
8957;DHT22;4513;50.054;8.230;2022-08-19T12:07:35;29.40;75.00
8957;DHT22;4513;50.054;8.230;2022-08-19T12:10:02;29.30;72.90
8957;DHT22;4513;50.054;8.230;2022-08-19T12:12:29;29.10;73.40
8957;DHT22;4513;50.054;8.230;2022-08-19T12:14:57;29.20;73.80
8957;DHT22;4513;50.054;8.230;2022-08-19T12:17:25;29.30;73.90
8957;DHT22;4513;50.054;8.230;2022-08-19T12:19:52;29.30;74.30
8957;DHT22;4513;50.054;8.230;2022-08-19T12:22:19;29.10;74.10
8957;DHT22;4513;50.054;8.230;2022-08-19T12:24:48;28.60;76.00
8957;DHT22;4513;50.054;8.230;2022-08-19T12:27:18;28.20;76.00
8957;DHT22;4513;50.054;8.230;2022-08-19T12:29:44;28.10;77.90
8957;DHT22;4513;50.054;8.230;2022-08-19T12:32:13;28.10;76.00
8957;DHT22;4513;50.054;8.230;2022-08-19T12:34:39;28.20;76.50
8957;DHT22;4513;50.054;8.230;2022-08-19T12:37:07;28.50;73.90
8957;DHT22;4513;50.054;8.230;2022-08-19T12:39:37;28.90;74.80
8957;DHT22;4513;50.054;8.230;2022-08-19T12:42:05;29.30;73.50
8957;DHT22;4513;50.054;8.230;2022-08-19T12:44:32;29.30;73.30
8957;DHT22;4513;50.054;8.230;2022-08-19T12:46:59;29.20;74.30
8957;DHT22;4513;50.054;8.230;2022-08-19T12:49:31;29.00;76.00
8957;DHT22;4513;50.054;8.230;2022-08-19T12:51:59;28.70;75.60
8957;DHT22;4513;50.054;8.230;2022-08-19T12:54:26;28.40;74.50
8957;DHT22;4513;50.054;8.230;2022-08-19T12:56:52;28.30;76.20
8957;DHT22;4513;50.054;8.230;2022-08-19T12:59:19;28.20;75.40
8957;DHT22;4513;50.054;8.230;2022-08-19T13:01:46;28.40;75.30
8957;DHT22;4513;50.054;8.230;2022-08-19T13:04:13;28.80;74.50
8957;DHT22;4513;50.054;8.230;2022-08-19T13:06:42;29.20;73.50
8957;DHT22;4513;50.054;8.230;2022-08-19T13:09:09;29.50;72.00
8957;DHT22;4513;50.054;8.230;2022-08-19T13:11:36;29.50;71.40
8957;DHT22;4513;50.054;8.230;2022-08-19T13:14:04;29.70;71.50
8957;DHT22;4513;50.054;8.230;2022-08-19T13:16:31;29.80;71.50
8957;DHT22;4513;50.054;8.230;2022-08-19T13:19:00;29.70;71.30
8957;DHT22;4513;50.054;8.230;2022-08-19T13:21:29;29.50;71.80
8957;DHT22;4513;50.054;8.230;2022-08-19T13:23:58;29.30;70.90
8957;DHT22;4513;50.054;8.230;2022-08-19T13:26:24;29.20;73.00
8957;DHT22;4513;50.054;8.230;2022-08-19T13:28:51;29.20;71.90
8957;DHT22;4513;50.054;8.230;2022-08-19T13:31:38;29.20;71.70
8957;DHT22;4513;50.054;8.230;2022-08-19T13:34:29;29.30;71.70
8957;DHT22;4513;50.054;8.230;2022-08-19T13:36:56;29.50;72.40
8957;DHT22;4513;50.054;8.230;2022-08-19T13:39:24;29.60;73.40
8957;DHT22;4513;50.054;8.230;2022-08-19T13:41:52;29.60;70.70
8957;DHT22;4513;50.054;8.230;2022-08-19T13:44:19;29.30;70.00
8957;DHT22;4513;50.054;8.230;2022-08-19T13:46:47;29.20;71.60
8957;DHT22;4513;50.054;8.230;2022-08-19T13:49:16;29.30;69.90
8957;DHT22;4513;50.054;8.230;2022-08-19T13:51:43;29.30;70.60
8957;DHT22;4513;50.054;8.230;2022-08-19T13:54:11;29.40;72.00
8957;DHT22;4513;50.054;8.230;2022-08-19T13:56:42;29.50;72.20
8957;DHT22;4513;50.054;8.230;2022-08-19T13:59:09;29.50;71.90
8957;DHT22;4513;50.054;8.230;2022-08-19T14:01:37;29.50;70.40
8957;DHT22;4513;50.054;8.230;2022-08-19T14:04:06;29.30;70.40
8957;DHT22;4513;50.054;8.230;2022-08-19T14:06:33;29.00;69.70
8957;DHT22;4513;50.054;8.230;2022-08-19T14:09:00;28.80;69.70
8957;DHT22;4513;50.054;8.230;2022-08-19T14:11:28;29.00;69.40
8957;DHT22;4513;50.054;8.230;2022-08-19T14:13:56;29.20;71.00
8957;DHT22;4513;50.054;8.230;2022-08-19T14:16:23;29.40;70.40
8957;DHT22;4513;50.054;8.230;2022-08-19T14:18:50;29.70;68.90
8957;DHT22;4513;50.054;8.230;2022-08-19T14:21:21;29.70;69.20
8957;DHT22;4513;50.054;8.230;2022-08-19T14:23:49;29.70;70.20
8957;DHT22;4513;50.054;8.230;2022-08-19T14:26:17;29.60;69.40
8957;DHT22;4513;50.054;8.230;2022-08-19T14:28:45;29.50;68.50
8957;DHT22;4513;50.054;8.230;2022-08-19T14:31:15;29.20;68.50
8957;DHT22;4513;50.054;8.230;2022-08-19T14:33:45;29.20;68.40
8957;DHT22;4513;50.054;8.230;2022-08-19T14:36:12;29.30;69.30
8957;DHT22;4513;50.054;8.230;2022-08-19T14:38:39;29.50;68.50
8957;DHT22;4513;50.054;8.230;2022-08-19T14:41:09;29.50;70.30
8957;DHT22;4513;50.054;8.230;2022-08-19T14:43:36;29.60;68.90
8957;DHT22;4513;50.054;8.230;2022-08-19T14:46:03;29.60;68.40
8957;DHT22;4513;50.054;8.230;2022-08-19T14:48:32;29.70;68.40
8957;DHT22;4513;50.054;8.230;2022-08-19T14:50:58;29.80;68.80
8957;DHT22;4513;50.054;8.230;2022-08-19T14:53:25;29.80;68.40
8957;DHT22;4513;50.054;8.230;2022-08-19T14:55:52;29.90;70.00
8957;DHT22;4513;50.054;8.230;2022-08-19T14:58:19;29.70;67.90
8957;DHT22;4513;50.054;8.230;2022-08-19T15:00:46;29.50;68.20
8957;DHT22;4513;50.054;8.230;2022-08-19T15:03:13;29.20;68.40
8957;DHT22;4513;50.054;8.230;2022-08-19T15:05:41;29.20;69.70
8957;DHT22;4513;50.054;8.230;2022-08-19T15:08:08;29.20;68.40
8957;DHT22;4513;50.054;8.230;2022-08-19T15:10:35;29.20;69.40
8957;DHT22;4513;50.054;8.230;2022-08-19T15:13:02;29.10;68.40
8957;DHT22;4513;50.054;8.230;2022-08-19T15:15:29;29.20;69.10
8957;DHT22;4513;50.054;8.230;2022-08-19T15:17:56;29.30;68.40
8957;DHT22;4513;50.054;8.230;2022-08-19T15:20:28;29.50;67.70
8957;DHT22;4513;50.054;8.230;2022-08-19T15:22:56;29.60;66.70
8957;DHT22;4513;50.054;8.230;2022-08-19T15:25:24;29.50;67.60
8957;DHT22;4513;50.054;8.230;2022-08-19T15:27:51;29.30;68.10
8957;DHT22;4513;50.054;8.230;2022-08-19T15:30:21;29.30;68.50
8957;DHT22;4513;50.054;8.230;2022-08-19T15:32:48;29.40;69.60
8957;DHT22;4513;50.054;8.230;2022-08-19T15:35:15;29.50;68.20
8957;DHT22;4513;50.054;8.230;2022-08-19T15:37:43;29.50;68.30
8957;DHT22;4513;50.054;8.230;2022-08-19T15:40:12;29.50;69.60
8957;DHT22;4513;50.054;8.230;2022-08-19T15:42:39;29.40;68.20
8957;DHT22;4513;50.054;8.230;2022-08-19T15:45:07;29.30;68.60
8957;DHT22;4513;50.054;8.230;2022-08-19T15:47:36;29.20;69.30
8957;DHT22;4513;50.054;8.230;2022-08-19T15:50:06;29.10;69.10
8957;DHT22;4513;50.054;8.230;2022-08-19T15:52:33;29.20;69.30
8957;DHT22;4513;50.054;8.230;2022-08-19T15:55:00;29.10;69.80
8957;DHT22;4513;50.054;8.230;2022-08-19T15:57:29;29.10;69.00
8957;DHT22;4513;50.054;8.230;2022-08-19T16:00:14;29.10;69.70
8957;DHT22;4513;50.054;8.230;2022-08-19T16:02:58;29.10;69.60
8957;DHT22;4513;50.054;8.230;2022-08-19T16:05:42;29.20;69.80
8957;DHT22;4513;50.054;8.230;2022-08-19T16:08:27;29.10;68.60
8957;DHT22;4513;50.054;8.230;2022-08-19T16:10:54;29.00;68.60
8957;DHT22;4513;50.054;8.230;2022-08-19T16:13:22;29.00;70.30